createdAt,value
2019-04-20T00:00:56.353Z,7.10
2019-04-20T00:03:30.984Z,6.40
2019-04-20T00:05:55.212Z,6.50
2019-04-20T00:08:27.845Z,6.80
2019-04-20T00:11:02.435Z,6.47
2019-04-20T00:13:33.318Z,7.10
2019-04-20T00:15:54.062Z,7.07
2019-04-20T00:18:26.822Z,6.60
2019-04-20T00:21:00.276Z,7.40
2019-04-20T00:23:33.682Z,9.20
2019-04-20T00:26:23.231Z,6.40
2019-04-20T00:29:00.208Z,6.23
2019-04-20T00:31:29.739Z,6.13
2019-04-20T00:33:56.181Z,6.60
2019-04-20T00:36:14.079Z,7.17
2019-04-20T00:38:48.369Z,6.17
2019-04-20T00:41:15.201Z,6.47
2019-04-20T00:43:44.158Z,7.33
2019-04-20T00:46:23.074Z,6.97
2019-04-20T00:48:50.852Z,8.03
2019-04-20T00:51:31.228Z,6.60
2019-04-20T00:53:48.401Z,5.80
2019-04-20T00:56:14.062Z,5.57
2019-04-20T00:58:53.314Z,6.03
2019-04-20T01:01:31.016Z,5.87
2019-04-20T01:04:06.865Z,5.40
2019-04-20T01:06:46.731Z,5.93
2019-04-20T01:09:18.755Z,6.57
2019-04-20T01:11:49.522Z,5.57
2019-04-20T01:14:26.093Z,5.53
2019-04-20T01:16:54.944Z,5.40
2019-04-20T01:19:19.322Z,5.83
2019-04-20T01:21:54.489Z,5.90
2019-04-20T01:24:23.936Z,6.27
2019-04-20T01:26:50.533Z,6.53
2019-04-20T01:29:29.725Z,5.90
2019-04-20T01:32:02.305Z,6.63
2019-04-20T01:34:34.484Z,6.53
2019-04-20T01:37:05.651Z,6.30
2019-04-20T01:39:26.370Z,5.93
2019-04-20T01:41:49.565Z,6.10
2019-04-20T01:44:26.127Z,6.80
2019-04-20T01:46:53.537Z,6.90
2019-04-20T01:49:22.829Z,7.70
2019-04-20T01:51:57.495Z,7.30
2019-04-20T01:54:31.182Z,7.47
2019-04-20T01:57:01.705Z,6.57
2019-04-20T01:59:37.976Z,6.40
2019-04-20T02:02:04.287Z,6.30
2019-04-20T02:04:34.410Z,7.40
2019-04-20T02:07:01.425Z,6.47
2019-04-20T02:09:31.155Z,7.03
2019-04-20T02:12:06.954Z,7.30
2019-04-20T02:14:37.782Z,8.00
2019-04-20T02:17:09.555Z,7.00
2019-04-20T02:19:44.229Z,6.90
2019-04-20T02:22:13.676Z,6.50
2019-04-20T02:24:29.909Z,7.07
2019-04-20T02:26:58.407Z,6.27
2019-04-20T02:30:07.149Z,6.27
2019-04-20T02:37:55.129Z,7.23
2019-04-20T02:40:12.914Z,6.57
2019-04-20T02:42:46.534Z,6.00
2019-04-20T02:47:41.014Z,6.37
2019-04-20T02:50:14.983Z,6.20
2019-04-20T02:55:24.838Z,6.10
2019-04-20T02:57:47.339Z,6.27
2019-04-20T03:00:12.756Z,6.63
2019-04-20T03:02:27.430Z,6.77
2019-04-20T03:04:47.840Z,5.90
2019-04-20T03:07:23.268Z,5.93
2019-04-20T03:10:03.945Z,6.23
2019-04-20T03:12:39.004Z,6.40
2019-04-20T03:14:56.171Z,6.07
2019-04-20T03:17:37.201Z,6.57
2019-04-20T03:19:57.401Z,6.37
2019-04-20T03:23:01.083Z,6.17
2019-04-20T03:25:05.156Z,5.97
2019-04-20T03:27:57.862Z,6.23
2019-04-20T03:35:35.566Z,5.47
2019-04-20T03:38:06.029Z,6.23
2019-04-20T03:40:29.965Z,5.73
2019-04-20T03:42:44.670Z,6.37
2019-04-20T03:45:17.804Z,6.23
2019-04-20T03:47:57.360Z,5.93
2019-04-20T03:50:37.081Z,5.93
2019-04-20T03:53:08.611Z,6.43
2019-04-20T03:55:44.569Z,6.53
2019-04-20T03:58:24.391Z,6.53
2019-04-20T04:01:22.652Z,6.13
2019-04-20T04:03:59.220Z,6.27
2019-04-20T04:06:22.822Z,6.80
2019-04-20T04:08:56.071Z,6.77
2019-04-20T04:11:26.254Z,5.90
2019-04-20T04:13:41.901Z,6.30
2019-04-20T04:16:13.732Z,6.53
2019-04-20T04:18:45.556Z,6.37
2019-04-20T04:21:18.383Z,6.03
2019-04-20T04:23:59.029Z,6.00
2019-04-20T04:26:29.269Z,6.73
2019-04-20T04:29:00.694Z,6.00
2019-04-20T04:31:34.969Z,6.30
2019-04-20T04:34:14.714Z,6.47
2019-04-20T04:36:26.117Z,7.33
2019-04-20T04:39:03.813Z,6.97
2019-04-20T04:41:31.124Z,7.83
2019-04-20T04:43:59.827Z,7.10
2019-04-20T04:46:12.406Z,7.67
2019-04-20T04:48:44.756Z,6.83
2019-04-20T04:51:20.015Z,7.60
2019-04-20T04:53:52.485Z,6.97
2019-04-20T04:56:16.195Z,6.77
2019-04-20T04:58:42.615Z,7.03
2019-04-20T05:01:18.476Z,6.63
2019-04-20T05:04:05.623Z,6.83
2019-04-20T05:06:28.711Z,7.27
2019-04-20T05:08:48.963Z,6.53
2019-04-20T05:11:13.259Z,6.87
2019-04-20T05:13:50.063Z,6.13
2019-04-20T05:16:33.406Z,7.10
2019-04-20T05:19:03.340Z,6.90
2019-04-20T05:22:07.707Z,6.30
2019-04-20T05:24:28.862Z,6.90
2019-04-20T05:27:24.604Z,7.00
2019-04-20T05:29:34.947Z,7.17
2019-04-20T05:32:08.183Z,6.93
2019-04-20T05:34:58.417Z,6.20
2019-04-20T05:37:31.296Z,6.90
2019-04-20T05:39:50.825Z,7.00
2019-04-20T05:42:26.169Z,7.40
2019-04-20T05:44:57.228Z,7.63
2019-04-20T05:47:24.070Z,7.40
2019-04-20T05:49:52.682Z,9.03
2019-04-20T05:55:00.236Z,7.63
2019-04-20T06:00:05.287Z,7.10
2019-04-20T06:02:30.156Z,7.57
2019-04-20T06:05:04.398Z,7.43
2019-04-20T06:07:26.886Z,8.30
2019-04-20T06:10:00.564Z,7.63
2019-04-20T06:12:28.505Z,8.10
2019-04-20T06:15:09.478Z,8.47
2019-04-20T06:17:59.731Z,7.80
2019-04-20T06:20:36.691Z,8.00
2019-04-20T06:23:11.943Z,8.60
2019-04-20T06:25:53.031Z,8.50
2019-04-20T06:28:14.896Z,7.83
2019-04-20T06:30:34.736Z,9.23
2019-04-20T06:34:07.558Z,7.57
2019-04-20T06:36:27.595Z,8.37
2019-04-20T06:41:33.044Z,9.87
2019-04-20T06:44:06.598Z,8.97
2019-04-20T06:46:26.239Z,9.50
2019-04-20T06:48:58.711Z,9.13
2019-04-20T06:51:31.049Z,9.30
2019-04-20T06:54:01.985Z,8.43
2019-04-20T06:56:42.034Z,9.13
2019-04-20T06:59:19.872Z,9.50
2019-04-20T07:01:48.697Z,8.97
2019-04-20T07:07:02.376Z,8.30
2019-04-20T07:09:14.159Z,8.20
2019-04-20T07:11:43.743Z,7.23
2019-04-20T07:13:59.229Z,7.10
2019-04-20T07:16:44.774Z,8.07
2019-04-20T07:19:18.885Z,7.83
2019-04-20T07:22:02.223Z,7.20
2019-04-20T07:24:26.848Z,6.17
2019-04-20T07:26:55.855Z,6.77
2019-04-20T07:29:28.703Z,7.07
2019-04-20T07:31:52.914Z,6.33
2019-04-20T07:34:23.075Z,7.10
2019-04-20T07:37:19.313Z,6.30
2019-04-20T07:39:28.108Z,6.17
2019-04-20T07:42:04.545Z,6.63
2019-04-20T07:44:36.392Z,7.33
2019-04-20T07:49:27.724Z,6.73
2019-04-20T07:51:41.822Z,7.27
2019-04-20T07:54:40.187Z,7.17
2019-04-20T07:56:58.668Z,7.23
2019-04-20T07:59:18.409Z,7.43
2019-04-20T08:02:13.805Z,7.50
2019-04-20T08:04:36.792Z,6.53
2019-04-20T08:06:55.686Z,7.20
2019-04-20T08:09:28.884Z,6.80
2019-04-20T08:12:19.491Z,8.17
2019-04-20T08:14:46.791Z,7.37
2019-04-20T08:17:21.325Z,7.20
2019-04-20T08:19:47.298Z,6.93
2019-04-20T08:22:23.037Z,8.10
2019-04-20T08:24:42.824Z,8.70
2019-04-20T08:27:03.853Z,8.43
2019-04-20T08:29:48.347Z,8.53
2019-04-20T08:32:24.083Z,7.57
2019-04-20T08:34:59.446Z,7.50
2019-04-20T08:37:28.038Z,6.83
2019-04-20T08:40:01.434Z,7.17
2019-04-20T08:42:31.544Z,6.27
2019-04-20T08:45:04.059Z,6.47
2019-04-20T08:47:39.632Z,6.80
2019-04-20T08:53:03.561Z,6.07
2019-04-20T08:55:09.206Z,5.93
2019-04-20T08:57:24.746Z,6.40
2019-04-20T08:59:54.399Z,7.10
2019-04-20T09:02:23.881Z,6.20
2019-04-20T09:05:00.611Z,5.62
2019-04-20T09:07:25.132Z,5.87
2019-04-20T09:10:16.660Z,5.67
2019-04-20T09:12:40.604Z,5.33
2019-04-20T09:14:53.118Z,5.37
2019-04-20T09:17:32.393Z,6.00
2019-04-20T09:20:01.770Z,5.93
2019-04-20T09:22:49.435Z,5.70
2019-04-20T09:27:45.727Z,5.20
2019-04-20T09:30:24.362Z,5.92
2019-04-20T09:33:09.157Z,5.90
2019-04-20T09:35:41.599Z,5.42
2019-04-20T09:38:09.823Z,5.95
2019-04-20T09:40:40.504Z,5.90
2019-04-20T09:43:00.300Z,5.08
2019-04-20T09:45:37.504Z,6.03
2019-04-20T09:48:01.718Z,8.40
2019-04-20T09:50:49.621Z,6.08
2019-04-20T09:53:17.096Z,6.03
2019-04-20T09:55:42.927Z,5.80
2019-04-20T09:58:14.862Z,5.67
2019-04-20T10:01:00.767Z,5.60
2019-04-20T10:03:13.136Z,5.28
2019-04-20T10:05:41.772Z,6.62
2019-04-20T10:08:11.779Z,5.72
2019-04-20T10:10:42.663Z,5.37
2019-04-20T10:13:11.220Z,5.28
2019-04-20T10:15:39.767Z,4.95
2019-04-20T10:18:08.169Z,5.05
2019-04-20T10:20:38.882Z,5.47
2019-04-20T10:23:06.809Z,5.05
2019-04-20T10:25:36.309Z,5.30
2019-04-20T10:28:05.551Z,4.80
2019-04-20T10:30:34.711Z,5.10
2019-04-20T10:33:03.625Z,4.65
2019-04-20T10:35:32.127Z,5.08
2019-04-20T10:38:05.432Z,4.80
2019-04-20T10:40:46.125Z,4.85
2019-04-20T10:43:04.637Z,5.30
2019-04-20T10:45:35.039Z,4.87
2019-04-20T10:48:03.552Z,4.15
2019-04-20T10:50:32.871Z,4.20
2019-04-20T10:53:01.631Z,3.95
2019-04-20T10:55:31.341Z,3.85
2019-04-20T10:57:59.963Z,4.47
2019-04-20T11:00:43.998Z,3.80
2019-04-20T11:03:14.042Z,3.90
2019-04-20T11:05:44.652Z,3.90
2019-04-20T11:08:14.726Z,3.62
2019-04-20T11:10:55.983Z,4.22
2019-04-20T11:13:13.604Z,3.83
2019-04-20T11:15:44.312Z,4.00
2019-04-20T11:18:13.384Z,3.47
2019-04-20T11:20:41.947Z,4.20
2019-04-20T11:23:10.769Z,3.70
2019-04-20T11:25:40.033Z,4.37
2019-04-20T11:28:08.570Z,4.22
2019-04-20T11:30:38.328Z,4.40
2019-04-20T11:33:06.781Z,3.92
2019-04-20T11:35:39.204Z,3.80
2019-04-20T11:38:07.009Z,3.60
2019-04-20T11:40:37.001Z,3.62
2019-04-20T11:43:05.784Z,4.20
2019-04-20T11:45:34.386Z,3.40
2019-04-20T11:48:03.311Z,3.33
2019-04-20T11:50:31.819Z,3.00
2019-04-20T11:53:01.426Z,3.00
2019-04-20T11:55:30.706Z,3.33
2019-04-20T11:57:59.255Z,3.60
2019-04-20T12:00:55.281Z,2.70
2019-04-20T12:03:28.186Z,2.58
2019-04-20T12:05:55.315Z,2.70
2019-04-20T12:08:22.976Z,2.75
2019-04-20T12:10:56.477Z,2.92
2019-04-20T12:13:22.678Z,2.65
2019-04-20T12:15:51.876Z,2.30
2019-04-20T12:18:20.296Z,2.80
2019-04-20T12:20:48.716Z,2.77
2019-04-20T12:23:18.029Z,2.58
2019-04-20T12:25:46.463Z,2.70
2019-04-20T12:28:15.743Z,2.72
2019-04-20T12:30:44.311Z,2.92
2019-04-20T12:33:13.598Z,3.00
2019-04-20T12:35:42.629Z,2.70
2019-04-20T12:38:11.044Z,2.95
2019-04-20T12:40:39.938Z,2.77
2019-04-20T12:43:08.958Z,2.92
2019-04-20T12:45:37.749Z,2.83
2019-04-20T12:48:06.295Z,3.10
2019-04-20T12:50:35.309Z,2.98
2019-04-20T12:53:04.474Z,2.45
2019-04-20T12:55:33.000Z,2.95
2019-04-20T12:58:02.733Z,2.85
2019-04-20T13:00:46.032Z,2.90
2019-04-20T13:03:14.511Z,2.95
2019-04-20T13:05:43.847Z,3.25
2019-04-20T13:08:15.916Z,3.08
2019-04-20T13:10:44.632Z,2.77
2019-04-20T13:13:32.728Z,3.40
2019-04-20T13:16:05.707Z,3.02
2019-04-20T13:18:39.181Z,3.20
2019-04-20T13:21:09.179Z,3.25
2019-04-20T13:23:37.748Z,3.20
2019-04-20T13:26:08.714Z,3.08
2019-04-20T13:28:37.104Z,3.33
2019-04-20T13:31:06.102Z,3.22
2019-04-20T13:33:34.676Z,2.90
2019-04-20T13:36:04.070Z,3.27
2019-04-20T13:38:32.532Z,3.12
2019-04-20T13:41:01.996Z,3.25
2019-04-20T13:43:30.476Z,3.27
2019-04-20T13:45:58.875Z,3.40
2019-04-20T13:48:27.265Z,4.97
2019-04-20T13:50:56.064Z,3.25
2019-04-20T13:53:25.328Z,3.33
2019-04-20T13:55:54.136Z,3.70
2019-04-20T13:58:40.500Z,3.72
2019-04-20T14:01:19.749Z,3.17
2019-04-20T14:04:10.667Z,3.33
2019-04-20T14:06:39.522Z,3.50
2019-04-20T14:09:09.752Z,3.58
2019-04-20T14:11:39.200Z,3.42
2019-04-20T14:14:08.375Z,2.87
2019-04-20T14:16:37.200Z,3.27
2019-04-20T14:19:05.581Z,3.65
2019-04-20T14:21:34.301Z,3.70
2019-04-20T14:24:04.122Z,3.50
2019-04-20T14:26:33.558Z,4.25
2019-04-20T14:29:03.178Z,3.52
2019-04-20T14:31:32.158Z,3.58
2019-04-20T14:34:00.647Z,3.75
2019-04-20T14:36:29.048Z,3.70
2019-04-20T14:38:58.270Z,3.90
2019-04-20T14:41:26.772Z,3.95
2019-04-20T14:43:55.321Z,4.05
2019-04-20T14:46:26.214Z,4.33
2019-04-20T14:48:54.621Z,3.47
2019-04-20T14:51:23.741Z,3.72
2019-04-20T14:53:53.788Z,4.15
2019-04-20T14:56:23.417Z,4.40
2019-04-20T14:58:57.637Z,4.72
2019-04-20T15:01:36.714Z,4.10
2019-04-20T15:04:11.469Z,4.25
2019-04-20T15:06:39.425Z,4.28
2019-04-20T15:09:08.738Z,4.10
2019-04-20T15:11:39.869Z,4.33
2019-04-20T15:14:08.870Z,4.37
2019-04-20T15:16:38.473Z,4.25
2019-04-20T15:19:09.661Z,4.90
2019-04-20T15:21:39.940Z,3.98
2019-04-20T15:24:09.371Z,4.40
2019-04-20T15:26:38.526Z,4.00
2019-04-20T15:29:08.284Z,4.53
2019-04-20T15:31:36.803Z,4.37
2019-04-20T15:34:06.743Z,4.50
2019-04-20T15:36:36.134Z,4.12
2019-04-20T15:39:07.324Z,4.33
2019-04-20T15:41:35.866Z,3.83
2019-04-20T15:44:04.525Z,4.00
2019-04-20T15:46:34.841Z,3.55
2019-04-20T15:49:04.061Z,3.75
2019-04-20T15:51:34.163Z,5.30
2019-04-20T15:54:02.789Z,8.55
2019-04-20T15:56:31.160Z,4.10
2019-04-20T15:58:59.541Z,4.12
2019-04-20T16:01:30.271Z,4.12
2019-04-20T16:04:03.654Z,5.45
2019-04-20T16:06:32.850Z,7.78
2019-04-20T16:09:02.086Z,8.68
2019-04-20T16:11:30.944Z,11.25
2019-04-20T16:14:00.207Z,4.87
2019-04-20T16:16:29.944Z,4.28
2019-04-20T16:18:59.106Z,4.30
2019-04-20T16:21:31.251Z,3.90
2019-04-20T16:24:00.959Z,3.58
2019-04-20T16:26:40.073Z,4.20
2019-04-20T16:29:08.471Z,4.20
2019-04-20T16:31:38.269Z,4.30
2019-04-20T16:34:07.689Z,5.55
2019-04-20T16:36:36.750Z,4.05
2019-04-20T16:39:09.118Z,4.70
2019-04-20T16:41:37.939Z,4.78
2019-04-20T16:44:07.169Z,5.00
2019-04-20T16:46:36.332Z,4.10
2019-04-20T16:49:05.225Z,4.53
2019-04-20T16:51:34.766Z,4.97
2019-04-20T16:54:03.737Z,4.90
2019-04-20T16:56:32.948Z,5.10
2019-04-20T16:59:09.625Z,4.62
2019-04-20T17:01:31.770Z,4.97
2019-04-20T17:04:07.223Z,4.30
2019-04-20T17:06:31.991Z,4.55
2019-04-20T17:09:01.025Z,5.05
2019-04-20T17:11:30.033Z,4.53
2019-04-20T17:14:01.339Z,4.45
2019-04-20T17:16:28.725Z,4.72
2019-04-20T17:18:57.394Z,4.95
2019-04-20T17:21:28.983Z,4.83
2019-04-20T17:23:57.434Z,5.70
2019-04-20T17:26:45.408Z,4.45
2019-04-20T17:29:15.896Z,5.17
2019-04-20T17:31:49.393Z,4.92
2019-04-20T17:34:35.941Z,4.35
2019-04-20T17:36:48.597Z,5.08
2019-04-20T17:39:27.815Z,5.05
2019-04-20T17:42:02.952Z,4.60
2019-04-20T17:44:34.180Z,5.17
2019-04-20T17:46:59.032Z,4.90
2019-04-20T17:49:31.596Z,5.47
2019-04-20T17:52:12.599Z,5.70
2019-04-20T17:54:22.696Z,8.60
2019-04-20T17:56:52.160Z,6.30
2019-04-20T17:59:22.073Z,6.20
2019-04-20T18:02:16.786Z,6.90
2019-04-20T18:05:06.554Z,6.33
2019-04-20T18:07:32.536Z,6.30
2019-04-20T18:10:03.057Z,7.30
2019-04-20T18:12:20.751Z,8.27
2019-04-20T18:14:53.529Z,6.53
2019-04-20T18:17:30.530Z,6.77
2019-04-20T18:20:05.222Z,7.00
2019-04-20T18:22:34.154Z,6.13
2019-04-20T18:25:25.772Z,6.83
2019-04-20T18:27:53.186Z,6.33
2019-04-20T18:30:20.030Z,6.30
2019-04-20T18:32:37.780Z,5.77
2019-04-20T18:35:18.330Z,6.57
2019-04-20T18:37:54.839Z,5.20
2019-04-20T18:40:29.016Z,5.60
2019-04-20T18:42:59.986Z,5.20
2019-04-20T18:45:33.754Z,4.90
2019-04-20T18:48:07.592Z,5.20
2019-04-20T18:50:27.326Z,5.10
2019-04-20T18:52:49.802Z,5.53
2019-04-20T18:55:27.479Z,5.50
2019-04-20T18:57:49.081Z,5.60
2019-04-20T19:00:26.974Z,5.40
2019-04-20T19:02:52.394Z,5.47
2019-04-20T19:05:21.828Z,5.33
2019-04-20T19:07:57.796Z,6.27
2019-04-20T19:10:27.519Z,5.13
2019-04-20T19:13:34.179Z,5.70
2019-04-20T19:16:15.264Z,6.37
2019-04-20T19:19:04.295Z,5.53
2019-04-20T19:21:21.804Z,5.87
2019-04-20T19:23:59.224Z,6.20
2019-04-20T19:26:22.852Z,6.17
2019-04-20T19:28:54.428Z,6.17
2019-04-20T19:31:39.258Z,6.53
2019-04-20T19:34:11.535Z,6.83
2019-04-20T19:36:31.863Z,6.30
2019-04-20T19:39:06.073Z,6.43
2019-04-20T19:41:32.113Z,6.50
2019-04-20T19:44:06.416Z,6.67
2019-04-20T19:48:58.379Z,7.17
2019-04-20T19:51:43.480Z,7.87
2019-04-20T19:54:15.284Z,7.77
2019-04-20T19:56:37.445Z,7.77
2019-04-20T19:59:02.971Z,7.67
2019-04-20T20:01:22.103Z,7.83
2019-04-20T20:03:57.486Z,8.23
2019-04-20T20:06:29.228Z,8.00
2019-04-20T20:08:55.747Z,9.13
2019-04-20T20:11:28.178Z,9.10
2019-04-20T20:13:53.840Z,8.50
2019-04-20T20:16:30.305Z,9.37
2019-04-20T20:19:02.788Z,7.80
2019-04-20T20:21:32.908Z,8.47
2019-04-20T20:23:52.208Z,8.97
2019-04-20T20:26:29.336Z,8.50
2019-04-20T20:29:03.567Z,8.47
2019-04-20T20:31:33.459Z,8.47
2019-04-20T20:34:06.056Z,8.47
2019-04-20T20:36:30.888Z,7.57
2019-04-20T20:38:53.861Z,7.77
2019-04-20T20:41:28.249Z,8.10
2019-04-20T20:44:02.608Z,8.07
2019-04-20T20:46:32.843Z,8.43
2019-04-20T20:49:15.291Z,8.10
2019-04-20T20:51:43.763Z,8.67
2019-04-20T20:54:02.190Z,8.10
2019-04-20T20:56:28.193Z,8.50
2019-04-20T20:59:00.637Z,8.47
2019-04-20T21:01:26.506Z,8.03
2019-04-20T21:03:54.700Z,8.20
2019-04-20T21:06:23.184Z,8.30
2019-04-20T21:08:56.059Z,8.47
2019-04-20T21:11:27.246Z,7.13
2019-04-20T21:13:54.623Z,7.80
2019-04-20T21:16:27.170Z,8.43
2019-04-20T21:19:10.629Z,8.47
2019-04-20T21:21:37.345Z,8.23
2019-04-20T21:24:03.169Z,8.23
2019-04-20T21:26:30.448Z,8.67
2019-04-20T21:28:55.535Z,9.17
2019-04-20T21:31:27.440Z,9.17
2019-04-20T21:33:55.193Z,8.30
2019-04-20T21:36:27.585Z,9.00
2019-04-20T21:38:53.972Z,8.60
2019-04-20T21:41:25.376Z,8.83
2019-04-20T21:43:53.863Z,8.37
2019-04-20T21:46:22.852Z,8.60
2019-04-20T21:49:04.245Z,8.43
2019-04-20T21:51:32.242Z,8.80
2019-04-20T21:53:54.723Z,8.70
2019-04-20T21:56:21.991Z,8.67
2019-04-20T21:58:56.631Z,8.27
2019-04-20T22:01:27.276Z,8.50
2019-04-20T22:03:52.348Z,9.13
2019-04-20T22:06:22.340Z,8.70
2019-04-20T22:08:56.749Z,8.53
2019-04-20T22:11:21.945Z,7.93
2019-04-20T22:13:51.685Z,8.77
2019-04-20T22:16:23.813Z,9.30
2019-04-20T22:18:59.166Z,8.67
2019-04-20T22:21:26.555Z,8.90
2019-04-20T22:24:05.705Z,8.33
2019-04-20T22:26:31.069Z,8.43
2019-04-20T22:28:52.179Z,8.50
2019-04-20T22:31:22.138Z,9.07
2019-04-20T22:33:52.221Z,8.17
2019-04-20T22:36:24.844Z,9.27
2019-04-20T22:39:10.099Z,9.40
2019-04-20T22:41:45.770Z,9.10
2019-04-20T22:44:17.359Z,8.87
2019-04-20T22:46:44.056Z,9.17
2019-04-20T22:49:26.892Z,10.00
2019-04-20T22:51:53.195Z,9.90
2019-04-20T22:54:29.932Z,9.87
2019-04-20T22:56:54.853Z,9.30
2019-04-20T22:59:17.438Z,8.70
2019-04-20T23:01:48.511Z,9.07
2019-04-20T23:04:13.281Z,8.43
2019-04-20T23:06:47.746Z,8.63
2019-04-20T23:09:14.762Z,9.00
2019-04-20T23:11:42.349Z,9.07
2019-04-20T23:14:11.007Z,8.90
2019-04-20T23:16:43.968Z,9.30
2019-04-20T23:19:10.167Z,7.80
2019-04-20T23:21:42.051Z,8.70
2019-04-20T23:24:11.236Z,8.73
2019-04-20T23:26:42.237Z,8.37
2019-04-20T23:29:09.268Z,8.67
2019-04-20T23:31:41.338Z,8.10
2019-04-20T23:34:15.313Z,9.00
2019-04-20T23:36:42.358Z,9.00
2019-04-20T23:39:08.676Z,8.03
2019-04-20T23:41:37.696Z,8.77
2019-04-20T23:44:21.116Z,9.10
2019-04-20T23:46:53.456Z,9.20
2019-04-20T23:49:29.183Z,8.23
2019-04-20T23:52:21.382Z,8.37
2019-04-20T23:54:26.183Z,8.90
2019-04-20T23:56:53.630Z,8.97
2019-04-20T23:59:28.996Z,9.10
